createdAt,value
2023-04-17T00:01:55.408Z,99794.31
2023-04-17T00:04:23.354Z,99787.28
2023-04-17T00:06:53.855Z,99791.75
2023-04-17T00:09:21.382Z,99792.53
2023-04-17T00:11:52.013Z,99792.53
2023-04-17T00:14:19.643Z,99794.31
2023-04-17T00:16:47.277Z,99789.22
2023-04-17T00:19:14.809Z,99789.22
2023-04-17T00:21:45.133Z,99783.97
2023-04-17T00:24:15.238Z,99774.72
2023-04-17T00:26:45.681Z,99778.00
2023-04-17T00:29:13.379Z,99780.56
2023-04-17T00:31:40.964Z,99780.41
2023-04-17T00:34:08.325Z,99777.72
2023-04-17T00:36:35.680Z,99774.13
2023-04-17T00:39:02.904Z,99773.22
2023-04-17T00:41:30.449Z,99772.50
2023-04-17T00:43:57.690Z,99772.06
2023-04-17T00:46:25.391Z,99766.63
2023-04-17T00:48:52.738Z,99761.41
2023-04-17T00:51:20.268Z,99763.09
2023-04-17T00:53:48.624Z,99759.38
2023-04-17T00:56:16.000Z,99760.00
2023-04-17T00:58:43.836Z,99762.47
2023-04-17T01:01:11.554Z,99757.16
2023-04-17T01:03:38.905Z,99752.53
2023-04-17T01:06:06.787Z,99755.31
2023-04-17T01:08:42.344Z,99751.72
2023-04-17T01:11:12.569Z,99753.13
2023-04-17T01:13:50.994Z,99753.44
2023-04-17T01:16:20.405Z,99752.25
2023-04-17T01:18:48.608Z,99749.41
2023-04-17T01:21:16.618Z,99748.69
2023-04-17T01:23:46.962Z,99739.72
2023-04-17T01:26:20.997Z,99749.13
2023-04-17T01:28:57.619Z,99754.19
2023-04-17T01:31:27.678Z,99746.13
2023-04-17T01:34:01.149Z,99750.34
2023-04-17T01:36:28.518Z,99753.59
2023-04-17T01:38:55.815Z,99762.09
2023-04-17T01:41:24.163Z,99761.81
2023-04-17T01:43:51.489Z,99766.88
2023-04-17T01:46:18.901Z,99764.88
2023-04-17T01:48:46.683Z,99761.13
2023-04-17T01:51:15.418Z,99764.47
2023-04-17T01:53:42.641Z,99762.81
2023-04-17T01:56:09.991Z,99757.28
2023-04-17T01:58:37.641Z,99754.28
2023-04-17T02:01:05.684Z,99756.03
2023-04-17T02:03:33.322Z,99756.66
2023-04-17T02:06:00.832Z,99756.81
2023-04-17T02:08:29.690Z,99755.03
2023-04-17T02:10:59.129Z,99755.41
2023-04-17T02:13:26.515Z,99759.16
2023-04-17T02:15:53.935Z,99754.13
2023-04-17T02:18:21.350Z,99751.66
2023-04-17T02:20:48.772Z,99748.88
2023-04-17T02:23:16.193Z,99747.91
2023-04-17T02:25:43.633Z,99745.84
2023-04-17T02:28:10.899Z,99748.19
2023-04-17T02:30:38.168Z,99751.56
2023-04-17T02:33:05.659Z,99755.84
2023-04-17T02:35:34.037Z,99753.59
2023-04-17T02:38:01.381Z,99754.31
2023-04-17T02:40:28.750Z,99753.59
2023-04-17T02:43:01.503Z,99750.06
2023-04-17T02:45:29.662Z,99749.34
2023-04-17T02:47:57.347Z,99757.19
2023-04-17T02:50:24.962Z,99762.78
2023-04-17T02:53:02.766Z,99756.50
2023-04-17T02:55:30.304Z,99763.25
2023-04-17T02:57:57.455Z,99751.75
2023-04-17T03:00:26.229Z,99757.13
2023-04-17T03:02:53.915Z,99752.31
2023-04-17T03:05:23.216Z,99758.09
2023-04-17T03:07:52.058Z,99748.16
2023-04-17T03:10:19.633Z,99747.00
2023-04-17T03:12:47.493Z,99748.28
2023-04-17T03:15:14.912Z,99751.13
2023-04-17T03:17:42.740Z,99754.31
2023-04-17T03:20:10.311Z,99760.44
2023-04-17T03:22:37.953Z,99757.66
2023-04-17T03:25:09.421Z,99757.38
2023-04-17T03:27:46.699Z,99755.66
2023-04-17T03:30:15.134Z,99756.56
2023-04-17T03:32:46.515Z,99759.66
2023-04-17T03:35:13.720Z,99758.38
2023-04-17T03:37:44.968Z,99757.31
2023-04-17T03:40:13.430Z,99760.81
2023-04-17T03:42:43.971Z,99765.59
2023-04-17T03:45:11.564Z,99761.91
2023-04-17T03:47:39.069Z,99764.06
2023-04-17T03:50:07.696Z,99764.06
2023-04-17T03:52:40.333Z,99772.88
2023-04-17T03:55:08.371Z,99772.06
2023-04-17T03:57:35.811Z,99770.53
2023-04-17T04:00:06.925Z,99770.78
2023-04-17T04:02:46.708Z,99773.41
2023-04-17T04:05:18.045Z,99779.06
2023-04-17T04:07:45.653Z,99776.53
2023-04-17T04:10:18.383Z,99774.66
2023-04-17T04:12:45.656Z,99779.41
2023-04-17T04:15:14.316Z,99777.28
2023-04-17T04:17:42.088Z,99775.91
2023-04-17T04:20:10.782Z,99776.00
2023-04-17T04:22:37.992Z,99770.44
2023-04-17T04:25:07.695Z,99779.75
2023-04-17T04:27:49.804Z,99777.41
2023-04-17T04:30:25.609Z,99782.78
2023-04-17T04:33:01.179Z,99782.44
2023-04-17T04:35:30.485Z,99780.63
2023-04-17T04:38:02.312Z,99778.31
2023-04-17T04:40:38.178Z,99784.41
2023-04-17T04:43:07.174Z,99780.81
2023-04-17T04:45:41.737Z,99784.94
2023-04-17T04:48:09.005Z,99790.22
2023-04-17T04:50:36.279Z,99797.13
2023-04-17T04:53:03.450Z,99792.19
2023-04-17T04:55:45.144Z,99795.19
2023-04-17T04:58:13.181Z,99802.88
2023-04-17T05:00:40.630Z,99801.00
2023-04-17T05:03:14.766Z,99809.63
2023-04-17T05:05:43.320Z,99816.81
2023-04-17T05:08:13.911Z,99806.59
2023-04-17T05:10:41.698Z,99814.75
2023-04-17T05:13:10.288Z,99806.22
2023-04-17T05:15:40.054Z,99814.94
2023-04-17T05:18:08.086Z,99815.31
2023-04-17T05:20:37.715Z,99821.44
2023-04-17T05:23:05.996Z,99819.09
2023-04-17T05:25:33.303Z,99818.56
2023-04-17T05:28:04.139Z,99818.09
2023-04-17T05:30:32.589Z,99815.59
2023-04-17T05:33:11.530Z,99816.41
2023-04-17T05:35:46.872Z,99822.97
2023-04-17T05:38:14.293Z,99813.72
2023-04-17T05:40:41.690Z,99819.63
2023-04-17T05:43:12.453Z,99829.00
2023-04-17T05:45:41.749Z,99831.31
2023-04-17T05:48:10.993Z,99827.72
2023-04-17T05:50:38.251Z,99828.78
2023-04-17T05:53:06.942Z,99823.41
2023-04-17T05:55:39.883Z,99826.53
2023-04-17T06:00:45.600Z,99828.53
2023-04-17T06:03:19.178Z,99836.03
2023-04-17T06:05:49.179Z,99839.00
2023-04-17T06:08:17.256Z,99841.22
2023-04-17T06:10:45.984Z,99843.44
2023-04-17T06:13:13.578Z,99848.34
2023-04-17T06:15:45.423Z,99844.53
2023-04-17T06:18:15.973Z,99843.97
2023-04-17T06:20:46.032Z,99844.97
2023-04-17T06:23:13.515Z,99849.06
2023-04-17T06:25:40.816Z,99847.88
2023-04-17T06:28:08.179Z,99837.22
2023-04-17T06:30:35.715Z,99842.66
2023-04-17T06:33:03.891Z,99852.09
2023-04-17T06:35:31.555Z,99853.31
2023-04-17T06:38:08.998Z,99855.56
2023-04-17T06:40:36.586Z,99859.47
2023-04-17T06:43:06.205Z,99857.56
2023-04-17T06:45:37.871Z,99843.97
2023-04-17T06:48:07.239Z,99849.78
2023-04-17T06:50:34.524Z,99844.88
2023-04-17T06:53:01.792Z,99851.44
2023-04-17T06:55:28.943Z,99848.59
2023-04-17T06:57:56.196Z,99851.34
2023-04-17T07:00:23.741Z,99850.91
2023-04-17T07:02:51.504Z,99855.94
2023-04-17T07:05:18.826Z,99852.47
2023-04-17T07:07:45.983Z,99857.13
2023-04-17T07:10:15.673Z,99852.13
2023-04-17T07:12:42.892Z,99845.47
2023-04-17T07:15:11.192Z,99858.88
2023-04-17T07:17:38.448Z,99858.16
2023-04-17T07:20:07.954Z,99859.22
2023-04-17T07:22:35.623Z,99858.84
2023-04-17T07:25:03.166Z,99858.91
2023-04-17T07:27:30.439Z,99865.56
2023-04-17T07:29:57.653Z,99867.66
2023-04-17T07:32:24.921Z,99865.75
2023-04-17T07:34:52.857Z,99872.69
2023-04-17T07:37:20.138Z,99873.88
2023-04-17T07:39:52.788Z,99869.53
2023-04-17T07:42:20.131Z,99872.72
2023-04-17T07:44:48.565Z,99869.03
2023-04-17T07:47:15.825Z,99872.22
2023-04-17T07:49:46.525Z,99883.47
2023-04-17T07:52:15.389Z,99877.56
2023-04-17T07:54:42.583Z,99869.69
2023-04-17T07:57:09.729Z,99879.28
2023-04-17T07:59:37.045Z,99879.41
2023-04-17T08:02:04.286Z,99876.19
2023-04-17T08:04:32.982Z,99879.22
2023-04-17T08:07:00.533Z,99887.00
2023-04-17T08:09:28.613Z,99877.22
2023-04-17T08:11:57.953Z,99884.03
2023-04-17T08:14:25.849Z,99880.78
2023-04-17T08:16:53.126Z,99876.66
2023-04-17T08:19:20.622Z,99880.41
2023-04-17T08:21:49.513Z,99879.88
2023-04-17T08:24:19.713Z,99880.66
2023-04-17T08:26:48.003Z,99881.81
2023-04-17T08:29:15.859Z,99882.66
2023-04-17T08:31:43.308Z,99879.28
2023-04-17T08:34:15.115Z,99877.41
2023-04-17T08:36:43.097Z,99880.25
2023-04-17T08:39:12.286Z,99887.19
2023-04-17T08:42:05.318Z,99883.16
2023-04-17T08:44:32.497Z,99889.16
2023-04-17T08:46:59.707Z,99881.09
2023-04-17T08:49:32.022Z,99890.91
2023-04-17T08:52:05.901Z,99887.28
2023-04-17T08:54:35.194Z,99887.06
2023-04-17T08:57:07.039Z,99891.72
2023-04-17T08:59:34.383Z,99888.00
2023-04-17T09:02:07.506Z,99881.56
2023-04-17T09:04:44.544Z,99883.88
2023-04-17T09:07:14.408Z,99876.81
2023-04-17T09:09:54.511Z,99875.03
2023-04-17T09:12:26.152Z,99873.22
2023-04-17T09:14:53.589Z,99867.69
2023-04-17T09:17:21.652Z,99871.75
2023-04-17T09:20:09.241Z,99870.84
2023-04-17T09:22:40.218Z,99871.84
2023-04-17T09:25:23.132Z,99870.00
2023-04-17T09:27:50.508Z,99872.59
2023-04-17T09:30:17.646Z,99868.47
2023-04-17T09:32:44.947Z,99874.41
2023-04-17T09:35:25.960Z,99872.78
2023-04-17T09:37:59.375Z,99873.41
2023-04-17T09:40:40.752Z,99873.00
2023-04-17T09:43:11.185Z,99874.91
2023-04-17T09:45:42.446Z,99874.25
2023-04-17T09:48:12.689Z,99879.88
2023-04-17T09:50:40.354Z,99877.78
2023-04-17T09:53:08.705Z,99879.00
2023-04-17T09:55:38.064Z,99876.22
2023-04-17T09:58:07.893Z,99882.41
2023-04-17T10:00:37.724Z,99881.22
2023-04-17T10:03:07.317Z,99884.88
2023-04-17T10:05:35.755Z,99882.66
2023-04-17T10:08:04.232Z,99878.28
2023-04-17T10:10:36.239Z,99868.41
2023-04-17T10:13:08.486Z,99871.06
2023-04-17T10:15:38.458Z,99885.38
2023-04-17T10:18:25.282Z,99879.94
2023-04-17T10:20:54.234Z,99874.44
2023-04-17T10:23:34.017Z,99870.66
2023-04-17T10:26:24.799Z,99873.28
2023-04-17T10:28:54.116Z,99865.31
2023-04-17T10:32:02.472Z,99866.94
2023-04-17T10:34:38.173Z,99857.72
2023-04-17T10:37:05.378Z,99858.38
2023-04-17T10:39:58.585Z,99854.09
2023-04-17T10:42:26.627Z,99847.06
2023-04-17T10:45:01.505Z,99853.38
2023-04-17T10:47:38.945Z,99856.19
2023-04-17T10:50:10.140Z,99853.31
2023-04-17T10:52:41.976Z,99856.41
2023-04-17T10:55:23.493Z,99848.69
2023-04-17T10:57:59.276Z,99844.34
2023-04-17T11:00:39.621Z,99849.94
2023-04-17T11:03:07.766Z,99849.78
2023-04-17T11:05:35.843Z,99855.63
2023-04-17T11:08:03.319Z,99853.47
2023-04-17T11:10:35.362Z,99843.50
2023-04-17T11:13:02.632Z,99851.00
2023-04-17T11:15:34.162Z,99846.72
2023-04-17T11:18:03.423Z,99844.13
2023-04-17T11:20:33.135Z,99843.53
2023-04-17T11:23:06.244Z,99843.75
2023-04-17T11:25:34.776Z,99843.78
2023-04-17T11:28:06.490Z,99851.25
2023-04-17T11:30:36.521Z,99843.84
2023-04-17T11:33:07.647Z,99832.13
2023-04-17T11:35:41.078Z,99833.13
2023-04-17T11:38:12.733Z,99826.59
2023-04-17T11:40:53.183Z,99832.84
2023-04-17T11:43:25.472Z,99827.44
2023-04-17T11:45:56.512Z,99827.91
2023-04-17T11:48:29.338Z,99823.38
2023-04-17T11:51:04.022Z,99840.06
2023-04-17T11:53:34.445Z,99839.72
2023-04-17T11:56:18.684Z,99836.03
2023-04-17T11:58:58.018Z,99842.06
2023-04-17T12:01:28.926Z,99839.75
2023-04-17T12:03:58.609Z,99841.09
2023-04-17T12:06:38.916Z,99833.44
2023-04-17T12:09:07.079Z,99842.81
2023-04-17T12:11:35.794Z,99836.16
2023-04-17T12:14:05.403Z,99840.38
2023-04-17T12:16:32.706Z,99831.25
2023-04-17T12:18:59.882Z,99842.88
2023-04-17T12:21:27.029Z,99835.88
2023-04-17T12:23:54.221Z,99830.06
2023-04-17T12:26:21.571Z,99829.78
2023-04-17T12:28:48.706Z,99835.69
2023-04-17T12:31:15.911Z,99833.22
2023-04-17T12:33:43.097Z,99828.47
2023-04-17T12:36:10.702Z,99826.44
2023-04-17T12:38:38.023Z,99829.28
2023-04-17T12:41:05.303Z,99827.53
2023-04-17T12:43:33.520Z,99825.50
2023-04-17T12:46:01.431Z,99818.50
2023-04-17T12:48:30.784Z,99820.78
2023-04-17T12:50:59.493Z,99819.47
2023-04-17T12:53:26.628Z,99823.88
2023-04-17T12:55:54.088Z,99821.00
2023-04-17T12:58:21.359Z,99814.69
2023-04-17T13:00:48.670Z,99807.06
2023-04-17T13:03:15.965Z,99803.53
2023-04-17T13:05:44.336Z,99798.38
2023-04-17T13:08:15.175Z,99801.47
2023-04-17T13:10:42.874Z,99804.41
2023-04-17T13:13:10.553Z,99800.78
2023-04-17T13:15:37.787Z,99789.78
2023-04-17T13:18:05.309Z,99795.94
2023-04-17T13:20:32.624Z,99795.19
2023-04-17T13:22:59.856Z,99798.13
2023-04-17T13:25:27.026Z,99787.00
2023-04-17T13:27:55.597Z,99791.19
2023-04-17T13:30:22.990Z,99787.72
2023-04-17T13:32:50.428Z,99787.25
2023-04-17T13:35:18.099Z,99788.16
2023-04-17T13:37:45.272Z,99781.16
2023-04-17T13:40:13.164Z,99777.00
2023-04-17T13:42:40.848Z,99775.97
2023-04-17T13:45:08.785Z,99770.75
2023-04-17T13:47:36.255Z,99772.19
2023-04-17T13:50:04.007Z,99761.97
2023-04-17T13:52:31.267Z,99757.31
2023-04-17T13:54:58.590Z,99772.28
2023-04-17T13:57:25.799Z,99767.44
2023-04-17T13:59:52.965Z,99757.53
2023-04-17T14:02:20.273Z,99762.06
2023-04-17T14:04:47.746Z,99757.53
2023-04-17T14:07:15.446Z,99758.50
2023-04-17T14:09:42.716Z,99748.69
2023-04-17T14:12:09.910Z,99746.44
2023-04-17T14:14:37.213Z,99742.03
2023-04-17T14:17:04.426Z,99736.91
2023-04-17T14:19:31.892Z,99740.50
2023-04-17T14:21:59.600Z,99737.47
2023-04-17T14:24:26.726Z,99740.78
2023-04-17T14:26:53.947Z,99738.31
2023-04-17T14:29:21.344Z,99747.00
2023-04-17T14:31:48.745Z,99741.19
2023-04-17T14:34:16.066Z,99741.16
2023-04-17T14:36:43.799Z,99738.16
2023-04-17T14:39:11.639Z,99730.19
2023-04-17T14:41:39.146Z,99736.94
2023-04-17T14:44:06.514Z,99735.66
2023-04-17T14:46:33.780Z,99740.84
2023-04-17T14:49:01.012Z,99732.78
2023-04-17T14:51:28.395Z,99739.09
2023-04-17T14:53:55.770Z,99734.97
2023-04-17T14:56:23.022Z,99733.53
2023-04-17T14:58:50.353Z,99734.84
2023-04-17T15:01:17.627Z,99734.53
2023-04-17T15:03:47.895Z,99734.44
2023-04-17T15:06:16.903Z,99728.19
2023-04-17T15:08:45.957Z,99720.28
2023-04-17T15:11:13.226Z,99738.78
2023-04-17T15:13:40.617Z,99732.59
2023-04-17T15:16:10.621Z,99737.63
2023-04-17T15:18:39.396Z,99740.84
2023-04-17T15:21:07.192Z,99738.19
2023-04-17T15:23:35.290Z,99742.41
2023-04-17T15:26:02.662Z,99747.03
2023-04-17T15:28:29.863Z,99733.66
2023-04-17T15:30:57.070Z,99724.84
2023-04-17T15:33:24.252Z,99743.50
2023-04-17T15:35:59.847Z,99734.97
2023-04-17T15:38:27.877Z,99729.25
2023-04-17T15:40:55.557Z,99725.50
2023-04-17T15:43:22.981Z,99730.91
2023-04-17T15:45:51.770Z,99740.69
2023-04-17T15:48:19.242Z,99735.53
2023-04-17T15:50:46.428Z,99732.97
2023-04-17T15:53:13.580Z,99731.63
2023-04-17T15:55:41.212Z,99733.75
2023-04-17T15:58:08.541Z,99729.25
2023-04-17T16:00:35.750Z,99728.16
2023-04-17T16:03:03.413Z,99723.81
2023-04-17T16:05:32.434Z,99725.28
2023-04-17T16:08:01.424Z,99726.34
2023-04-17T16:10:28.725Z,99725.53
2023-04-17T16:12:55.888Z,99720.28
2023-04-17T16:15:23.259Z,99726.63
2023-04-17T16:17:50.478Z,99722.13
2023-04-17T16:20:17.665Z,99726.16
2023-04-17T16:22:44.806Z,99735.53
2023-04-17T16:25:12.176Z,99732.78
2023-04-17T16:27:40.313Z,99728.03
2023-04-17T16:30:10.394Z,99733.72
2023-04-17T16:32:37.754Z,99728.16
2023-04-17T16:35:06.235Z,99734.06
2023-04-17T16:37:33.415Z,99726.56
2023-04-17T16:40:04.612Z,99733.34
2023-04-17T16:42:32.673Z,99730.94
2023-04-17T16:45:00.186Z,99733.47
2023-04-17T16:47:29.833Z,99738.31
2023-04-17T16:49:57.403Z,99733.03
2023-04-17T16:52:24.640Z,99728.84
2023-04-17T16:54:51.777Z,99719.50
2023-04-17T16:57:18.949Z,99728.28
2023-04-17T16:59:46.087Z,99729.19
2023-04-17T17:02:14.010Z,99734.44
2023-04-17T17:04:41.376Z,99733.72
2023-04-17T17:07:09.203Z,99737.16
2023-04-17T17:09:36.397Z,99729.28
2023-04-17T17:12:03.816Z,99728.41
2023-04-17T17:14:30.991Z,99735.25
2023-04-17T17:16:58.357Z,99740.50
2023-04-17T17:19:25.700Z,99739.97
2023-04-17T17:21:55.036Z,99734.38
2023-04-17T17:24:22.294Z,99743.47
2023-04-17T17:26:49.431Z,99735.41
2023-04-17T17:29:16.853Z,99736.63
2023-04-17T17:31:44.305Z,99737.91
2023-04-17T17:34:25.124Z,99737.22
2023-04-17T17:36:53.070Z,99742.00
2023-04-17T17:39:21.830Z,99736.03
2023-04-17T17:41:49.619Z,99747.50
2023-04-17T17:44:16.963Z,99741.13
2023-04-17T17:46:44.367Z,99740.47
2023-04-17T17:49:11.695Z,99740.25
2023-04-17T17:51:38.876Z,99742.41
2023-04-17T17:54:06.123Z,99742.53
2023-04-17T17:56:33.280Z,99753.47
2023-04-17T17:59:00.575Z,99749.97
2023-04-17T18:01:27.753Z,99751.69
2023-04-17T18:03:55.307Z,99751.50
2023-04-17T18:06:22.836Z,99753.88
2023-04-17T18:08:49.977Z,99750.84
2023-04-17T18:11:17.128Z,99756.91
2023-04-17T18:13:44.473Z,99753.16
2023-04-17T18:16:11.676Z,99751.16
2023-04-17T18:18:39.030Z,99752.59
2023-04-17T18:21:09.524Z,99755.03
2023-04-17T18:23:36.747Z,99760.03
2023-04-17T18:26:04.347Z,99757.16
2023-04-17T18:28:32.628Z,99759.47
2023-04-17T18:31:00.008Z,99759.16
2023-04-17T18:33:28.972Z,99764.31
2023-04-17T18:35:56.317Z,99769.44
2023-04-17T18:38:23.511Z,99767.44
2023-04-17T18:40:59.167Z,99772.50
2023-04-17T18:43:29.095Z,99774.19
2023-04-17T18:45:56.253Z,99780.06
2023-04-17T18:48:24.504Z,99774.56
2023-04-17T18:50:51.963Z,99783.19
2023-04-17T18:53:19.084Z,99787.38
2023-04-17T18:55:46.220Z,99787.13
2023-04-17T18:58:13.335Z,99789.44
2023-04-17T19:00:40.568Z,99788.41
2023-04-17T19:03:07.819Z,99790.78
2023-04-17T19:05:35.134Z,99793.16
2023-04-17T19:08:02.501Z,99794.78
2023-04-17T19:10:30.016Z,99798.06
2023-04-17T19:12:57.203Z,99803.31
2023-04-17T19:15:24.684Z,99802.97
2023-04-17T19:17:52.919Z,99803.69
2023-04-17T19:20:20.209Z,99811.34
2023-04-17T19:22:47.513Z,99811.25
2023-04-17T19:25:14.671Z,99807.78
2023-04-17T19:27:41.826Z,99806.00
2023-04-17T19:30:11.138Z,99805.19
2023-04-17T19:32:38.771Z,99804.31
2023-04-17T19:35:07.251Z,99813.81
2023-04-17T19:37:34.432Z,99817.25
2023-04-17T19:40:06.368Z,99814.50
2023-04-17T19:42:38.537Z,99810.84
2023-04-17T19:45:07.259Z,99814.19
2023-04-17T19:47:34.441Z,99814.09
2023-04-17T19:50:01.637Z,99815.75
2023-04-17T19:52:28.782Z,99814.75
2023-04-17T19:54:55.980Z,99808.63
2023-04-17T19:57:26.162Z,99814.72
2023-04-17T19:59:53.297Z,99803.28
2023-04-17T20:02:21.512Z,99806.69
2023-04-17T20:04:48.677Z,99811.78
2023-04-17T20:07:15.816Z,99808.25
2023-04-17T20:09:43.475Z,99811.59
2023-04-17T20:12:10.728Z,99809.91
2023-04-17T20:14:37.893Z,99806.53
2023-04-17T20:17:05.171Z,99813.50
2023-04-17T20:19:32.577Z,99810.63
2023-04-17T20:21:59.677Z,99810.63
2023-04-17T20:24:26.960Z,99815.13
2023-04-17T20:26:55.551Z,99814.31
2023-04-17T20:29:23.134Z,99811.75
2023-04-17T20:31:50.549Z,99810.00
2023-04-17T20:34:18.075Z,99811.50
2023-04-17T20:36:45.524Z,99811.19
2023-04-17T20:39:14.137Z,99816.41
2023-04-17T20:41:41.863Z,99815.53
2023-04-17T20:44:09.037Z,99817.41
2023-04-17T20:46:36.211Z,99818.13
2023-04-17T20:49:03.916Z,99811.91
2023-04-17T20:51:32.340Z,99817.97
2023-04-17T20:53:59.512Z,99810.03
2023-04-17T20:56:26.713Z,99818.69
2023-04-17T20:58:53.915Z,99815.19
2023-04-17T21:01:21.286Z,99823.06
2023-04-17T21:03:48.609Z,99824.47
2023-04-17T21:06:15.992Z,99820.72
2023-04-17T21:08:43.259Z,99817.22
2023-04-17T21:11:10.790Z,99822.72
2023-04-17T21:13:38.067Z,99819.72
2023-04-17T21:16:09.598Z,99821.25
2023-04-17T21:18:37.028Z,99822.16
2023-04-17T21:21:04.486Z,99828.34
2023-04-17T21:23:31.829Z,99827.09
2023-04-17T21:25:59.140Z,99825.19
2023-04-17T21:28:26.374Z,99827.88
2023-04-17T21:30:53.666Z,99826.88
2023-04-17T21:33:20.958Z,99828.66
2023-04-17T21:35:48.254Z,99828.72
2023-04-17T21:38:15.614Z,99830.56
2023-04-17T21:40:50.989Z,99828.75
2023-04-17T21:43:19.037Z,99835.81
2023-04-17T21:45:46.660Z,99835.72
2023-04-17T21:48:17.042Z,99829.34
2023-04-17T21:50:44.368Z,99823.88
2023-04-17T21:53:11.624Z,99822.75
2023-04-17T21:55:39.058Z,99823.44
2023-04-17T21:58:07.211Z,99821.69
2023-04-17T22:00:34.450Z,99828.78
2023-04-17T22:03:01.705Z,99829.69
2023-04-17T22:05:29.127Z,99822.41
2023-04-17T22:07:56.298Z,99820.28
2023-04-17T22:10:24.386Z,99826.75
2023-04-17T22:12:52.418Z,99827.44
2023-04-17T22:15:19.768Z,99835.19
2023-04-17T22:17:47.109Z,99831.66
2023-04-17T22:20:14.358Z,99833.19
2023-04-17T22:22:41.548Z,99827.75
2023-04-17T22:25:09.735Z,99829.41
2023-04-17T22:27:36.884Z,99831.75
2023-04-17T22:30:06.064Z,99825.34
2023-04-17T22:32:36.556Z,99825.91
2023-04-17T22:35:04.347Z,99827.31
2023-04-17T22:37:31.556Z,99824.38
2023-04-17T22:39:58.735Z,99824.16
2023-04-17T22:42:25.891Z,99827.34
2023-04-17T22:44:53.177Z,99826.97
2023-04-17T22:47:21.788Z,99830.44
2023-04-17T22:49:49.382Z,99822.19
2023-04-17T22:52:16.508Z,99829.78
2023-04-17T22:54:43.698Z,99834.53
2023-04-17T22:57:11.493Z,99830.00
2023-04-17T22:59:40.515Z,99832.16
2023-04-17T23:02:08.234Z,99834.84
2023-04-17T23:04:35.662Z,99833.06
2023-04-17T23:07:02.892Z,99831.97
2023-04-17T23:09:30.178Z,99833.69
2023-04-17T23:11:57.554Z,99828.25
2023-04-17T23:14:26.127Z,99834.03
2023-04-17T23:16:53.394Z,99831.44
2023-04-17T23:19:22.333Z,99832.25
2023-04-17T23:21:49.555Z,99834.94
2023-04-17T23:24:16.669Z,99837.63
2023-04-17T23:26:44.005Z,99841.69
2023-04-17T23:29:11.154Z,99845.69
2023-04-17T23:31:38.487Z,99843.06
2023-04-17T23:34:05.829Z,99840.38
2023-04-17T23:36:32.992Z,99835.84
2023-04-17T23:39:00.190Z,99832.31
2023-04-17T23:41:27.932Z,99825.50
2023-04-17T23:43:58.064Z,99826.47
2023-04-17T23:46:25.630Z,99824.53
2023-04-17T23:48:52.865Z,99823.44
2023-04-17T23:51:20.788Z,99829.63
2023-04-17T23:53:49.082Z,99819.44
2023-04-17T23:56:18.012Z,99819.28
2023-04-17T23:58:45.200Z,99812.00
